Time;durP1;ratioP1;P1;durP2;ratioP2;P2;SDS_P1;SDS_P2;PMS_P1;PMS_P2;Temp;Humidity;BMP_temperature;BMP_pressure;BME280_temperature;BME280_humidity;BME280_pressure;Samples;Min_cycle;Max_cycle;Signal;HPM_P1;HPM_P2
2021/04/14 04:57:47;;;;;;;9.60;4.03;;;;;;;;;;5961841;23;20018;-74
2021/04/14 05:00:29;;;;;;;5.03;3.40;;;;;;;;;;4976927;28;20037;-73
2021/04/14 05:03:15;;;;;;;4.10;3.05;;;;;;;;;;4971700;28;20035;-74
2021/04/14 05:05:42;;;;;;;5.82;3.58;;;;;;;;;;4967769;28;20432;-74
2021/04/14 05:08:09;;;;;;;6.88;4.00;;;;;;;;;;4968713;28;20031;-78
2021/04/14 05:10:37;;;;;;;3.67;3.17;;;;;;;;;;4964288;28;20027;-70
2021/04/14 05:13:07;;;;;;;5.47;3.17;;;;;;;;;;4967113;28;20027;-71
2021/04/14 05:15:47;;;;;;;8.77;4.80;;;;;;;;;;4957981;28;20015;-72
2021/04/14 05:18:13;;;;;;;5.23;3.80;;;;;;;;;;4956453;28;20492;-71
2021/04/14 05:20:59;;;;;;;6.78;3.70;;;;;;;;;;4959312;28;20407;-73
2021/04/14 05:23:26;;;;;;;10.10;5.10;;;;;;;;;;4958955;28;20027;-71
2021/04/14 05:25:58;;;;;;;9.30;4.47;;;;;;;;;;4959582;28;20035;-72
2021/04/14 05:28:27;;;;;;;5.72;3.55;;;;;;;;;;4969921;28;20038;-73
2021/04/14 05:31:39;;;;;;;4.22;2.80;;;;;;;;;;4966748;28;20117;-76
2021/04/14 05:34:12;;;;;;;3.88;2.80;;;;;;;;;;4963137;28;20023;-75
2021/04/14 05:37:02;;;;;;;4.18;3.17;;;;;;;;;;4960280;28;20062;-73
2021/04/14 05:39:46;;;;;;;5.30;2.88;;;;;;;;;;4965715;28;20030;-71
2021/04/14 05:42:21;;;;;;;3.92;2.97;;;;;;;;;;4965339;28;20030;-76
2021/04/14 05:44:47;;;;;;;4.57;2.60;;;;;;;;;;4964139;28;20341;-73
2021/04/14 05:47:29;;;;;;;12.25;4.93;;;;;;;;;;4964253;28;20462;-71
2021/04/14 05:49:55;;;;;;;3.78;2.60;;;;;;;;;;4973820;28;20038;-73
2021/04/14 05:52:26;;;;;;;6.15;2.65;;;;;;;;;;4976127;28;20034;-73
2021/04/14 05:55:02;;;;;;;3.25;2.55;;;;;;;;;;4976661;28;20062;-77
2021/04/14 05:57:28;;;;;;;6.75;3.17;;;;;;;;;;4966531;28;20042;-75
2021/04/14 05:59:54;;;;;;;3.78;2.67;;;;;;;;;;4956107;28;20392;-71
2021/04/14 06:02:20;;;;;;;3.28;2.45;;;;;;;;;;4956594;29;20031;-76
2021/04/14 06:04:46;;;;;;;5.45;3.05;;;;;;;;;;4955414;29;20042;-74
2021/04/14 06:07:12;;;;;;;5.10;3.25;;;;;;;;;;4963979;28;20031;-74
2021/04/14 06:09:42;;;;;;;3.90;2.47;;;;;;;;;;4975635;28;20019;-75
2021/04/14 06:12:08;;;;;;;7.95;3.95;;;;;;;;;;4975817;28;20031;-74
2021/04/14 06:14:34;;;;;;;2.78;2.15;;;;;;;;;;4975754;28;20023;-71
2021/04/14 06:17:00;;;;;;;10.40;4.50;;;;;;;;;;4974626;28;20041;-73
2021/04/14 06:19:26;;;;;;;51.05;18.85;;;;;;;;;;4975834;28;20030;-75
2021/04/14 06:21:52;;;;;;;14.73;6.07;;;;;;;;;;4976557;28;20090;-71
2021/04/14 06:24:18;;;;;;;62.35;19.35;;;;;;;;;;4977279;28;20023;-75
2021/04/14 06:26:50;;;;;;;27.42;10.07;;;;;;;;;;4975403;28;20439;-72
2021/04/14 06:29:16;;;;;;;31.80;11.73;;;;;;;;;;4975346;28;20057;-75
2021/04/14 06:31:42;;;;;;;10.45;4.55;;;;;;;;;;4975189;28;20037;-74
2021/04/14 06:34:18;;;;;;;6.97;4.18;;;;;;;;;;4966070;28;20033;-76
2021/04/14 06:36:48;;;;;;;7.28;4.00;;;;;;;;;;4974149;28;20062;-75
2021/04/14 06:39:34;;;;;;;8.32;5.47;;;;;;;;;;4972258;28;20027;-76
2021/04/14 06:42:19;;;;;;;8.75;5.00;;;;;;;;;;4973518;28;20029;-72
2021/04/14 06:44:57;;;;;;;17.45;8.70;;;;;;;;;;4966573;28;20031;-74
2021/04/14 06:47:51;;;;;;;21.95;9.52;;;;;;;;;;4955841;28;20020;-78
2021/04/14 06:50:29;;;;;;;13.55;7.18;;;;;;;;;;4954288;29;20382;-76
2021/04/14 06:52:59;;;;;;;9.85;5.82;;;;;;;;;;4954375;29;20050;-76
2021/04/14 06:55:26;;;;;;;7.32;4.85;;;;;;;;;;4954307;29;20033;-74
2021/04/14 06:57:57;;;;;;;7.20;4.72;;;;;;;;;;4955095;29;20471;-76
2021/04/14 07:00:33;;;;;;;6.88;4.57;;;;;;;;;;4954395;29;20035;-73
2021/04/14 07:03:13;;;;;;;7.20;4.38;;;;;;;;;;4954278;29;20501;-75
2021/04/14 07:05:44;;;;;;;8.32;4.38;;;;;;;;;;4954177;29;20176;-72
2021/04/14 07:08:18;;;;;;;9.13;4.38;;;;;;;;;;4953936;29;20027;-75
2021/04/14 07:10:52;;;;;;;6.35;4.05;;;;;;;;;;4953985;29;20424;-74
2021/04/14 07:13:18;;;;;;;8.63;4.75;;;;;;;;;;4953782;29;20098;-73
2021/04/14 07:15:47;;;;;;;5.97;4.25;;;;;;;;;;4953792;29;20050;-74
2021/04/14 07:18:18;;;;;;;11.25;5.00;;;;;;;;;;4953552;29;20043;-74
2021/04/14 07:20:51;;;;;;;8.02;4.85;;;;;;;;;;4953619;29;20066;-73
2021/04/14 07:23:27;;;;;;;7.55;4.53;;;;;;;;;;4955241;29;20467;-74
2021/04/14 07:25:57;;;;;;;7.78;4.43;;;;;;;;;;4955222;28;20034;-72
2021/04/14 07:28:42;;;;;;;7.95;4.95;;;;;;;;;;4955082;29;20058;-73
2021/04/14 07:31:26;;;;;;;10.85;5.45;;;;;;;;;;4965462;28;20042;-75
2021/04/14 07:34:07;;;;;;;8.82;4.70;;;;;;;;;;4954980;29;20114;-73
2021/04/14 07:36:33;;;;;;;;;;;;;;;;;;4954209;29;20081;-74
2021/04/14 07:39:12;;;;;;;8.32;4.13;;;;;;;;;;4955005;29;19910;-75
2021/04/14 07:41:43;;;;;;;7.97;4.05;;;;;;;;;;4954903;28;20158;-74
2021/04/14 07:44:14;;;;;;;7.70;3.90;;;;;;;;;;4954829;28;20045;-74
2021/04/14 07:46:43;;;;;;;;;;;;;;;;;;4962291;28;20074;-75
2021/04/14 07:49:11;;;;;;;6.93;4.13;;;;;;;;;;4962940;28;19913;-76
2021/04/14 07:51:37;;;;;;;5.60;3.97;;;;;;;;;;4971203;28;20031;-73
2021/04/14 07:54:07;;;;;;;5.47;4.00;;;;;;;;;;4974185;28;20360;-76
2021/04/14 07:56:47;;;;;;;9.40;4.50;;;;;;;;;;4974081;28;20558;-72
2021/04/14 07:59:39;;;;;;;7.07;3.92;;;;;;;;;;4973954;28;20046;-77
2021/04/14 08:02:13;;;;;;;56.63;41.35;;;;;;;;;;4969689;28;20027;-74
2021/04/14 08:04:45;;;;;;;13.90;11.90;;;;;;;;;;4963080;28;20113;-75
2021/04/14 08:07:27;;;;;;;11.52;9.77;;;;;;;;;;4973462;28;20023;-73
2021/04/14 08:09:57;;;;;;;7.22;5.43;;;;;;;;;;4972135;28;20093;-74
2021/04/14 08:12:34;;;;;;;23.92;18.67;;;;;;;;;;4972723;28;20027;-72
2021/04/14 08:15:17;;;;;;;7.70;5.10;;;;;;;;;;4973331;28;20093;-74
2021/04/14 08:17:44;;;;;;;9.38;8.13;;;;;;;;;;4973451;28;20538;-72
2021/04/14 08:20:16;;;;;;;11.98;9.00;;;;;;;;;;4973056;28;20045;-74
2021/04/14 08:22:42;;;;;;;28.20;25.42;;;;;;;;;;4969037;28;20487;-72
2021/04/14 08:25:09;;;;;;;6.80;5.30;;;;;;;;;;4970378;28;20027;-73
2021/04/14 08:27:41;;;;;;;10.00;7.15;;;;;;;;;;4973283;28;20081;-74
2021/04/14 08:30:07;;;;;;;9.10;6.00;;;;;;;;;;4973478;28;20101;-72
2021/04/14 08:32:36;;;;;;;7.38;6.15;;;;;;;;;;4973679;28;20511;-73
2021/04/14 08:35:03;;;;;;;6.13;4.43;;;;;;;;;;4973415;28;20102;-74
2021/04/14 08:37:30;;;;;;;10.93;7.15;;;;;;;;;;4973517;28;20419;-72
2021/04/14 08:40:00;;;;;;;9.15;6.38;;;;;;;;;;4973008;28;20150;-75
2021/04/14 08:42:29;;;;;;;9.20;6.38;;;;;;;;;;4975786;28;20030;-74
2021/04/14 08:45:04;;;;;;;133.73;77.15;;;;;;;;;;4992846;28;20030;-74
2021/04/14 08:47:31;;;;;;;10.73;8.82;;;;;;;;;;4988445;28;20029;-75
2021/04/14 08:50:04;;;;;;;7.50;5.53;;;;;;;;;;4992529;28;20057;-74
2021/04/14 08:52:31;;;;;;;6.78;5.03;;;;;;;;;;4992827;28;20033;-75
2021/04/14 08:54:58;;;;;;;5.95;4.93;;;;;;;;;;4991242;28;20556;-73
2021/04/14 08:57:24;;;;;;;5.60;4.55;;;;;;;;;;4995034;28;20050;-75
2021/04/14 08:59:53;;;;;;;11.68;7.63;;;;;;;;;;4993512;28;20072;-73
2021/04/14 09:02:20;;;;;;;6.50;4.55;;;;;;;;;;4996331;28;20018;-76
2021/04/14 09:04:50;;;;;;;6.40;4.90;;;;;;;;;;4994742;28;20022;-74
2021/04/14 09:07:25;;;;;;;7.18;5.88;;;;;;;;;;4996342;28;20097;-74
2021/04/14 09:09:53;;;;;;;11.00;8.80;;;;;;;;;;4996473;28;20041;-74
2021/04/14 09:12:31;;;;;;;9.43;7.15;;;;;;;;;;4994502;28;20026;-76
2021/04/14 09:15:01;;;;;;;105.10;46.25;;;;;;;;;;4984816;28;20055;-77
2021/04/14 09:17:27;;;;;;;243.43;100.05;;;;;;;;;;4957711;28;20027;-77
2021/04/14 09:19:54;;;;;;;116.85;48.35;;;;;;;;;;4956682;28;20122;-75
2021/04/14 09:22:27;;;;;;;13.10;7.65;;;;;;;;;;4957524;28;20019;-76
2021/04/14 09:25:02;;;;;;;106.57;39.22;;;;;;;;;;4966230;28;20097;-74
2021/04/14 09:27:38;;;;;;;97.40;42.33;;;;;;;;;;4976578;28;20030;-74
2021/04/14 09:30:25;;;;;;;207.90;58.85;;;;;;;;;;4967786;28;20499;-76
2021/04/14 09:33:12;;;;;;;414.27;104.55;;;;;;;;;;4962891;28;20038;-76
2021/04/14 09:35:43;;;;;;;191.20;54.97;;;;;;;;;;4964357;28;20124;-76
2021/04/14 09:38:09;;;;;;;;;;;;;;;;;;4964495;28;20023;-76
2021/04/14 09:40:37;;;;;;;99.72;27.52;;;;;;;;;;4965776;28;19946;-76
2021/04/14 09:43:15;;;;;;;120.00;36.25;;;;;;;;;;4972470;28;20035;-78
2021/04/14 09:45:41;;;;;;;74.22;22.52;;;;;;;;;;4967385;28;20014;-76
2021/04/14 09:48:15;;;;;;;392.23;124.70;;;;;;;;;;4965519;28;20387;-76
2021/04/14 09:50:42;;;;;;;213.85;63.78;;;;;;;;;;4955397;28;20019;-77
2021/04/14 09:53:08;;;;;;;26.75;13.23;;;;;;;;;;4956231;28;20071;-77
2021/04/14 09:55:46;;;;;;;47.08;23.55;;;;;;;;;;4966575;28;20015;-76
2021/04/14 09:58:17;;;;;;;33.35;16.58;;;;;;;;;;4964829;28;20050;-75
2021/04/14 10:00:44;;;;;;;27.30;10.73;;;;;;;;;;4972394;28;20050;-74
2021/04/14 10:03:16;;;;;;;23.73;10.00;;;;;;;;;;4975114;28;20133;-75
2021/04/14 10:05:42;;;;;;;19.85;6.60;;;;;;;;;;4971817;28;20031;-75
2021/04/14 10:08:14;;;;;;;33.22;12.73;;;;;;;;;;4972164;28;20037;-76
2021/04/14 10:10:42;;;;;;;50.45;20.48;;;;;;;;;;4974880;28;20496;-73
2021/04/14 10:13:09;;;;;;;29.65;18.45;;;;;;;;;;4974838;28;20026;-71
2021/04/14 10:15:38;;;;;;;37.13;20.55;;;;;;;;;;4974921;28;20073;-73
2021/04/14 10:18:06;;;;;;;66.13;41.20;;;;;;;;;;4972707;28;20026;-73
2021/04/14 10:20:35;;;;;;;114.72;70.10;;;;;;;;;;4974153;28;20041;-74
2021/04/14 10:23:01;;;;;;;127.65;74.88;;;;;;;;;;4975381;28;20023;-76
2021/04/14 10:25:29;;;;;;;107.13;60.45;;;;;;;;;;4975275;28;20034;-75
2021/04/14 10:28:04;;;;;;;110.03;66.68;;;;;;;;;;4975285;28;20483;-75
2021/04/14 10:30:32;;;;;;;74.18;42.90;;;;;;;;;;4975320;28;20081;-76
2021/04/14 10:33:08;;;;;;;36.60;19.30;;;;;;;;;;4974903;28;20031;-72
2021/04/14 10:35:35;;;;;;;21.88;11.23;;;;;;;;;;4974563;28;20494;-75
2021/04/14 10:38:01;;;;;;;15.48;6.88;;;;;;;;;;4973336;28;20052;-74
2021/04/14 10:40:34;;;;;;;32.45;18.23;;;;;;;;;;4974084;28;20027;-73
2021/04/14 10:43:10;;;;;;;35.42;16.70;;;;;;;;;;4973333;28;20062;-74
2021/04/14 10:45:36;;;;;;;56.42;34.67;;;;;;;;;;4974442;28;20443;-73
2021/04/14 10:48:04;;;;;;;23.02;11.48;;;;;;;;;;4974615;28;20067;-76
2021/04/14 10:50:31;;;;;;;46.92;31.42;;;;;;;;;;4974470;28;20027;-75
2021/04/14 10:53:04;;;;;;;26.45;16.65;;;;;;;;;;4974661;28;20023;-76
2021/04/14 10:55:34;;;;;;;22.27;13.27;;;;;;;;;;4957360;28;20475;-75
2021/04/14 10:58:01;;;;;;;50.63;28.60;;;;;;;;;;4974463;28;20383;-73
2021/04/14 11:00:33;;;;;;;19.27;8.30;;;;;;;;;;4974035;28;20488;-74
2021/04/14 11:03:05;;;;;;;31.90;18.90;;;;;;;;;;4974622;28;20027;-73
2021/04/14 11:05:31;;;;;;;33.50;18.00;;;;;;;;;;4974468;28;20035;-73
2021/04/14 11:07:57;;;;;;;20.13;9.50;;;;;;;;;;4974505;28;20038;-72
2021/04/14 11:10:27;;;;;;;19.15;9.60;;;;;;;;;;4974306;28;20027;-73
2021/04/14 11:12:54;;;;;;;17.70;7.88;;;;;;;;;;4974259;28;20106;-73
2021/04/14 11:15:21;;;;;;;27.95;13.98;;;;;;;;;;4972959;28;20077;-73
2021/04/14 11:17:54;;;;;;;19.00;10.23;;;;;;;;;;4974299;28;20395;-73
2021/04/14 11:20:24;;;;;;;34.22;14.68;;;;;;;;;;4973259;28;20058;-73
2021/04/14 11:22:51;;;;;;;65.82;35.65;;;;;;;;;;4974474;28;20034;-75
2021/04/14 11:25:23;;;;;;;29.00;16.15;;;;;;;;;;4974310;28;20372;-74
2021/04/14 11:27:57;;;;;;;27.42;16.02;;;;;;;;;;4972951;28;20033;-72
2021/04/14 11:30:24;;;;;;;58.95;34.38;;;;;;;;;;4968737;28;20108;-72
2021/04/14 11:32:54;;;;;;;59.97;32.28;;;;;;;;;;4972984;28;20144;-74
2021/04/14 11:35:30;;;;;;;28.40;13.85;;;;;;;;;;4940081;29;20035;-75
2021/04/14 11:37:56;;;;;;;23.30;9.98;;;;;;;;;;4953553;28;20388;-73
2021/04/14 11:40:22;;;;;;;14.38;7.95;;;;;;;;;;4953412;28;20480;-75
2021/04/14 11:42:56;;;;;;;36.78;18.13;;;;;;;;;;4954548;28;20110;-73
2021/04/14 11:45:24;;;;;;;35.30;15.55;;;;;;;;;;4956935;28;20022;-75
2021/04/14 11:47:50;;;;;;;68.03;29.25;;;;;;;;;;4963011;28;20023;-73
2021/04/14 11:50:18;;;;;;;61.88;25.77;;;;;;;;;;4954321;29;20031;-75
2021/04/14 11:52:49;;;;;;;53.83;21.80;;;;;;;;;;4954352;29;20027;-75
2021/04/14 11:55:27;;;;;;;47.42;18.13;;;;;;;;;;4954232;29;20387;-72
2021/04/14 11:57:58;;;;;;;75.97;30.45;;;;;;;;;;4952830;28;20027;-74
2021/04/14 12:00:26;;;;;;;99.13;37.20;;;;;;;;;;4952767;29;20510;-71
2021/04/14 12:03:04;;;;;;;55.33;23.58;;;;;;;;;;4964228;28;20031;-73
2021/04/14 12:05:30;;;;;;;48.00;20.27;;;;;;;;;;4962259;28;20023;-74
2021/04/14 12:07:59;;;;;;;29.17;14.90;;;;;;;;;;4959049;28;20476;-70
2021/04/14 12:10:25;;;;;;;71.85;29.50;;;;;;;;;;4966802;28;20530;-71
2021/04/14 12:12:55;;;;;;;20.60;11.82;;;;;;;;;;4961845;28;20031;-70
2021/04/14 12:15:22;;;;;;;29.02;15.35;;;;;;;;;;4961254;28;20026;-71
2021/04/14 12:17:48;;;;;;;27.63;12.60;;;;;;;;;;4960210;28;20077;-71
2021/04/14 12:20:14;;;;;;;14.27;8.40;;;;;;;;;;4962259;28;20026;-71
2021/04/14 12:22:43;;;;;;;17.27;9.20;;;;;;;;;;4959395;28;20106;-72
2021/04/14 12:25:10;;;;;;;12.10;8.65;;;;;;;;;;4962436;28;20026;-71
2021/04/14 12:27:36;;;;;;;10.70;6.07;;;;;;;;;;4962154;28;20031;-72
2021/04/14 12:30:03;;;;;;;13.25;6.90;;;;;;;;;;4963882;28;20086;-72
2021/04/14 12:32:29;;;;;;;11.55;6.68;;;;;;;;;;4963576;28;20058;-72
2021/04/14 12:34:58;;;;;;;13.38;8.02;;;;;;;;;;4961750;28;20047;-72
2021/04/14 12:37:24;;;;;;;9.90;5.15;;;;;;;;;;4965729;28;20624;-71
2021/04/14 12:39:50;;;;;;;20.60;7.15;;;;;;;;;;4969220;28;20035;-74
2021/04/14 12:42:20;;;;;;;21.10;8.68;;;;;;;;;;4968863;28;20110;-72
2021/04/14 12:44:55;;;;;;;21.52;10.23;;;;;;;;;;4966085;28;20431;-71
2021/04/14 12:47:26;;;;;;;18.10;10.63;;;;;;;;;;4966542;28;20459;-70
2021/04/14 12:49:53;;;;;;;13.85;8.45;;;;;;;;;;4961545;28;20041;-69
2021/04/14 12:52:27;;;;;;;16.92;8.07;;;;;;;;;;4961498;28;20039;-69
2021/04/14 12:54:55;;;;;;;16.60;8.93;;;;;;;;;;4961047;28;20498;-72
2021/04/14 12:57:26;;;;;;;11.18;7.35;;;;;;;;;;4958110;29;20066;-71
2021/04/14 12:59:52;;;;;;;;;;;;;;;;;;4958592;29;20047;-70
2021/04/14 13:02:50;;;;;;;39.38;28.38;;;;;;;;;;4956924;29;19913;-70
2021/04/14 13:05:22;;;;;;;15.25;11.98;;;;;;;;;;4915032;29;20039;-69
2021/04/14 13:07:52;;;;;;;22.15;14.45;;;;;;;;;;4957867;29;20024;-69
2021/04/14 13:10:21;;;;;;;15.98;8.65;;;;;;;;;;4956678;29;20015;-70
2021/04/14 13:12:47;;;;;;;20.95;15.27;;;;;;;;;;4957688;28;20027;-70
2021/04/14 13:15:15;;;;;;;75.13;54.97;;;;;;;;;;4956519;29;20103;-70
2021/04/14 13:17:46;;;;;;;24.10;16.77;;;;;;;;;;4956695;29;20054;-70
2021/04/14 13:20:13;;;;;;;;;;;;;;;;;;4957725;29;20039;-71
2021/04/14 13:22:48;;;;;;;46.78;27.55;;;;;;;;;;4957493;28;19952;-72
2021/04/14 13:25:26;;;;;;;43.63;29.35;;;;;;;;;;4957223;28;20503;-71
2021/04/14 13:27:52;;;;;;;31.42;19.23;;;;;;;;;;4957372;29;20062;-72
2021/04/14 13:30:31;;;;;;;41.50;22.00;;;;;;;;;;4955977;29;20035;-71
2021/04/14 13:33:00;;;;;;;22.48;14.68;;;;;;;;;;4957254;28;20114;-73
2021/04/14 13:35:29;;;;;;;25.38;18.80;;;;;;;;;;4959741;28;20090;-72
2021/04/14 13:38:00;;;;;;;16.52;11.52;;;;;;;;;;4964113;28;20039;-72
2021/04/14 13:40:36;;;;;;;13.05;7.35;;;;;;;;;;4963007;28;20455;-72
2021/04/14 13:43:06;;;;;;;16.23;11.57;;;;;;;;;;4964572;28;20027;-73
2021/04/14 13:45:45;;;;;;;14.07;10.73;;;;;;;;;;4963066;28;20019;-72
2021/04/14 13:48:30;;;;;;;15.55;10.93;;;;;;;;;;4965888;28;20027;-72
2021/04/14 13:51:12;;;;;;;11.35;7.47;;;;;;;;;;4967805;28;20054;-71
2021/04/14 13:53:41;;;;;;;14.85;10.65;;;;;;;;;;4965181;28;20020;-74
2021/04/14 13:56:10;;;;;;;17.58;11.40;;;;;;;;;;4974836;28;20133;-72
2021/04/14 13:58:45;;;;;;;33.42;25.30;;;;;;;;;;4975691;28;20051;-72
2021/04/14 14:01:13;;;;;;;18.42;11.93;;;;;;;;;;4960943;28;20058;-74
2021/04/14 14:03:39;;;;;;;23.10;15.80;;;;;;;;;;4956571;28;20019;-73
2021/04/14 14:06:09;;;;;;;17.58;13.52;;;;;;;;;;4956471;28;20031;-72
2021/04/14 14:08:40;;;;;;;16.15;12.23;;;;;;;;;;4958759;28;20034;-71
2021/04/14 14:11:12;;;;;;;26.98;20.35;;;;;;;;;;4968546;28;20034;-71
2021/04/14 14:13:42;;;;;;;88.15;60.25;;;;;;;;;;4975859;28;20030;-73
2021/04/14 14:16:10;;;;;;;33.77;20.90;;;;;;;;;;4976082;28;20484;-70
2021/04/14 14:18:36;;;;;;;13.73;9.60;;;;;;;;;;4975619;28;20023;-71
2021/04/14 14:21:04;;;;;;;15.05;9.68;;;;;;;;;;4975530;28;20101;-71
2021/04/14 14:23:34;;;;;;;15.98;10.40;;;;;;;;;;4975537;28;20037;-71
2021/04/14 14:26:01;;;;;;;15.85;10.68;;;;;;;;;;4975536;28;20022;-70
2021/04/14 14:28:27;;;;;;;16.05;9.38;;;;;;;;;;4974107;28;20062;-71
2021/04/14 14:30:58;;;;;;;63.90;38.47;;;;;;;;;;4966519;28;20575;-72
2021/04/14 14:33:24;;;;;;;31.63;19.88;;;;;;;;;;4963694;28;20476;-72
2021/04/14 14:35:59;;;;;;;32.83;21.35;;;;;;;;;;4964124;28;20024;-72
2021/04/14 14:38:30;;;;;;;55.92;37.13;;;;;;;;;;4962522;28;20027;-73
2021/04/14 14:40:56;;;;;;;;;;;;;;;;;;4962784;28;20027;-73
2021/04/14 14:43:26;;;;;;;25.77;15.93;;;;;;;;;;4961966;28;19906;-74
2021/04/14 14:45:57;;;;;;;96.80;52.47;;;;;;;;;;4975229;28;20372;-74
2021/04/14 14:48:33;;;;;;;45.92;27.13;;;;;;;;;;4973929;28;20487;-71
2021/04/14 14:51:01;;;;;;;140.68;36.97;;;;;;;;;;4956140;28;20134;-73
2021/04/14 14:53:28;;;;;;;264.70;52.35;;;;;;;;;;4955578;28;20027;-73
2021/04/14 14:55:56;;;;;;;124.57;32.33;;;;;;;;;;4955410;28;20031;-74
2021/04/14 14:58:26;;;;;;;44.47;13.90;;;;;;;;;;4959560;28;20113;-73
2021/04/14 15:01:00;;;;;;;25.17;10.15;;;;;;;;;;4974569;28;20047;-74
2021/04/14 15:03:26;;;;;;;30.83;12.73;;;;;;;;;;4974120;28;20399;-72
2021/04/14 15:05:57;;;;;;;31.05;14.23;;;;;;;;;;4956165;28;20041;-73
2021/04/14 15:08:23;;;;;;;35.83;13.32;;;;;;;;;;4974050;28;20031;-74
2021/04/14 15:10:49;;;;;;;31.20;17.63;;;;;;;;;;4974589;28;20093;-73
2021/04/14 15:13:15;;;;;;;25.00;11.07;;;;;;;;;;4974753;28;20423;-74
2021/04/14 15:15:42;;;;;;;24.95;14.10;;;;;;;;;;4968152;28;20038;-73
2021/04/14 15:18:08;;;;;;;72.60;43.28;;;;;;;;;;4965406;28;20439;-74
2021/04/14 15:20:39;;;;;;;45.40;22.55;;;;;;;;;;4955280;29;20023;-73
2021/04/14 15:23:06;;;;;;;72.35;35.58;;;;;;;;;;4955201;29;20067;-72
2021/04/14 15:25:32;;;;;;;122.90;59.40;;;;;;;;;;4966218;28;20011;-73
2021/04/14 15:28:01;;;;;;;92.25;45.05;;;;;;;;;;4972901;28;20045;-74
2021/04/14 15:30:31;;;;;;;49.88;18.52;;;;;;;;;;4973499;28;20015;-73
2021/04/14 15:32:57;;;;;;;39.83;15.77;;;;;;;;;;4972671;28;20030;-71
2021/04/14 15:35:25;;;;;;;63.60;27.52;;;;;;;;;;4972669;28;20059;-74
2021/04/14 15:37:52;;;;;;;46.85;22.50;;;;;;;;;;4972756;28;20490;-74
2021/04/14 15:40:19;;;;;;;31.60;14.20;;;;;;;;;;4944870;28;20031;-74
2021/04/14 15:42:55;;;;;;;71.40;30.55;;;;;;;;;;4972727;28;20391;-72
2021/04/14 15:45:22;;;;;;;33.97;15.02;;;;;;;;;;4970628;28;20102;-71
2021/04/14 15:47:48;;;;;;;52.50;22.27;;;;;;;;;;4973853;28;20026;-71
2021/04/14 15:50:16;;;;;;;22.50;11.27;;;;;;;;;;4972510;28;20023;-73
2021/04/14 15:52:42;;;;;;;36.42;15.50;;;;;;;;;;4972616;28;20042;-74
2021/04/14 15:55:10;;;;;;;91.65;36.67;;;;;;;;;;4972647;28;20042;-72
2021/04/14 15:57:37;;;;;;;49.78;25.35;;;;;;;;;;4972404;28;20105;-71
2021/04/14 16:00:09;;;;;;;58.30;38.42;;;;;;;;;;4960562;28;20050;-75
2021/04/14 16:02:38;;;;;;;21.23;10.95;;;;;;;;;;4963996;28;20109;-72
2021/04/14 16:05:06;;;;;;;116.65;34.03;;;;;;;;;;4964138;28;20082;-73
2021/04/14 16:07:32;;;;;;;135.73;42.67;;;;;;;;;;4960558;28;20484;-74
2021/04/14 16:09:57;;;;;;;36.60;20.77;;;;;;;;;;4963325;28;20054;-74
2021/04/14 16:12:27;;;;;;;17.05;9.18;;;;;;;;;;4967427;28;20368;-71
2021/04/14 16:14:53;;;;;;;15.52;7.88;;;;;;;;;;4965005;28;20023;-72
2021/04/14 16:17:19;;;;;;;16.40;8.57;;;;;;;;;;4965444;28;20555;-74
2021/04/14 16:19:47;;;;;;;20.02;11.18;;;;;;;;;;4965924;28;20033;-72
2021/04/14 16:22:14;;;;;;;39.30;19.17;;;;;;;;;;4966122;28;20030;-71
2021/04/14 16:24:40;;;;;;;24.73;11.70;;;;;;;;;;4965534;28;20046;-73
2021/04/14 16:27:06;;;;;;;98.75;41.03;;;;;;;;;;4965621;28;20511;-72
2021/04/14 16:29:32;;;;;;;30.30;14.43;;;;;;;;;;4965774;28;20031;-72
2021/04/14 16:31:58;;;;;;;29.00;13.80;;;;;;;;;;4962243;28;20379;-73
2021/04/14 16:34:24;;;;;;;30.13;14.90;;;;;;;;;;4958188;28;20563;-71
2021/04/14 16:36:49;;;;;;;46.97;23.17;;;;;;;;;;4956993;28;20038;-72
2021/04/14 16:39:16;;;;;;;31.98;16.50;;;;;;;;;;4956966;28;20067;-71
2021/04/14 16:41:44;;;;;;;38.42;32.10;;;;;;;;;;4958200;28;20483;-72
2021/04/14 16:44:11;;;;;;;22.45;16.40;;;;;;;;;;4958087;28;20423;-72
2021/04/14 16:46:37;;;;;;;17.02;8.05;;;;;;;;;;4958164;28;20019;-74
2021/04/14 16:49:03;;;;;;;22.35;13.35;;;;;;;;;;4958076;28;20035;-71
2021/04/14 16:51:29;;;;;;;82.10;37.20;;;;;;;;;;4958079;28;20035;-71
2021/04/14 16:53:57;;;;;;;203.27;78.78;;;;;;;;;;4957826;28;20027;-74
2021/04/14 16:56:23;;;;;;;120.18;53.88;;;;;;;;;;4956758;28;20035;-71
2021/04/14 16:58:49;;;;;;;27.70;16.63;;;;;;;;;;4965480;28;20388;-72
2021/04/14 17:01:16;;;;;;;28.17;16.52;;;;;;;;;;4977115;28;20074;-71
2021/04/14 17:03:42;;;;;;;20.17;12.82;;;;;;;;;;4977045;28;20030;-71
2021/04/14 17:06:08;;;;;;;22.77;13.15;;;;;;;;;;4959660;28;20031;-70
2021/04/14 17:08:34;;;;;;;27.80;12.57;;;;;;;;;;4976949;28;20023;-69
2021/04/14 17:11:00;;;;;;;36.72;14.60;;;;;;;;;;4977019;28;20038;-70
2021/04/14 17:13:26;;;;;;;26.75;14.40;;;;;;;;;;4976851;28;20102;-71
2021/04/14 17:15:59;;;;;;;40.90;26.63;;;;;;;;;;4976727;28;20035;-71
2021/04/14 17:18:27;;;;;;;24.55;15.75;;;;;;;;;;4975529;28;20077;-72
2021/04/14 17:20:53;;;;;;;28.88;17.88;;;;;;;;;;4976133;28;20031;-73
2021/04/14 17:23:22;;;;;;;71.18;44.53;;;;;;;;;;4976351;28;20054;-72
2021/04/14 17:25:48;;;;;;;32.17;17.58;;;;;;;;;;4976026;28;20041;-72
2021/04/14 17:28:15;;;;;;;18.20;9.63;;;;;;;;;;4958558;28;20015;-73
2021/04/14 17:30:41;;;;;;;64.57;35.13;;;;;;;;;;4976347;28;20476;-73
2021/04/14 17:33:08;;;;;;;33.35;17.67;;;;;;;;;;4975891;28;20376;-73
2021/04/14 17:35:38;;;;;;;42.33;26.30;;;;;;;;;;4975991;28;20455;-72
2021/04/14 17:38:05;;;;;;;30.90;16.52;;;;;;;;;;4976311;28;20026;-72
2021/04/14 17:40:32;;;;;;;17.75;9.85;;;;;;;;;;4958589;28;20045;-72
2021/04/14 17:42:58;;;;;;;75.10;39.50;;;;;;;;;;4976059;28;20559;-74
2021/04/14 17:45:26;;;;;;;14.50;8.73;;;;;;;;;;4976251;28;20130;-74
2021/04/14 17:47:52;;;;;;;17.48;10.75;;;;;;;;;;4974594;28;20616;-73
2021/04/14 17:50:20;;;;;;;22.67;14.35;;;;;;;;;;4974688;28;20038;-72
2021/04/14 17:52:46;;;;;;;19.40;12.48;;;;;;;;;;4974543;28;20717;-76
2021/04/14 17:55:13;;;;;;;21.60;14.80;;;;;;;;;;4974533;28;20042;-75
2021/04/14 17:57:44;;;;;;;17.65;10.13;;;;;;;;;;4969709;28;20015;-77
2021/04/14 18:00:11;;;;;;;16.80;10.30;;;;;;;;;;4967392;28;20720;-76
2021/04/14 18:02:37;;;;;;;27.90;17.25;;;;;;;;;;4967662;28;20086;-76
2021/04/14 18:05:03;;;;;;;17.98;10.10;;;;;;;;;;4964134;28;20027;-74
2021/04/14 18:07:29;;;;;;;16.85;9.45;;;;;;;;;;4964413;28;20070;-74
2021/04/14 18:09:55;;;;;;;17.20;9.45;;;;;;;;;;4964909;28;20023;-72
2021/04/14 18:12:22;;;;;;;14.70;9.00;;;;;;;;;;4961026;28;20031;-75
2021/04/14 18:14:48;;;;;;;15.30;8.60;;;;;;;;;;4954336;28;20070;-76
2021/04/14 18:17:14;;;;;;;17.80;9.43;;;;;;;;;;4957891;28;20023;-72
2021/04/14 18:19:41;;;;;;;19.75;10.57;;;;;;;;;;4955850;28;20031;-76
2021/04/14 18:22:08;;;;;;;17.50;9.32;;;;;;;;;;4954982;28;20074;-74
2021/04/14 18:24:35;;;;;;;15.73;8.95;;;;;;;;;;4974210;28;20015;-75
2021/04/14 18:27:01;;;;;;;16.15;8.25;;;;;;;;;;4974056;28;20481;-74
2021/04/14 18:29:27;;;;;;;17.73;9.02;;;;;;;;;;4973047;28;20027;-75
2021/04/14 18:31:53;;;;;;;12.65;7.78;;;;;;;;;;4955611;28;20020;-75
2021/04/14 18:34:19;;;;;;;15.75;8.10;;;;;;;;;;4955514;28;20059;-75
2021/04/14 18:36:47;;;;;;;15.10;8.52;;;;;;;;;;4972621;28;20502;-76
2021/04/14 18:39:15;;;;;;;15.65;8.30;;;;;;;;;;4972758;28;20110;-76
2021/04/14 18:41:43;;;;;;;15.23;8.63;;;;;;;;;;4963636;28;20480;-76
2021/04/14 18:44:09;;;;;;;16.27;8.57;;;;;;;;;;4956622;28;20035;-76
2021/04/14 18:46:36;;;;;;;16.40;8.88;;;;;;;;;;4959728;28;20428;-76
2021/04/14 18:49:03;;;;;;;17.92;9.27;;;;;;;;;;4963665;28;20038;-77
2021/04/14 18:51:32;;;;;;;16.80;9.38;;;;;;;;;;4964955;28;20014;-75
2021/04/14 18:53:58;;;;;;;16.30;8.90;;;;;;;;;;4964277;28;20162;-76
2021/04/14 18:56:24;;;;;;;25.77;11.95;;;;;;;;;;4963518;28;20491;-76
2021/04/14 18:58:50;;;;;;;19.85;10.20;;;;;;;;;;4962613;28;20039;-76
2021/04/14 19:01:18;;;;;;;20.70;10.68;;;;;;;;;;4963157;28;20039;-75
2021/04/14 19:03:44;;;;;;;21.23;11.32;;;;;;;;;;4962585;28;20027;-75
2021/04/14 19:06:10;;;;;;;24.15;11.65;;;;;;;;;;4964355;28;20084;-75
2021/04/14 19:08:39;;;;;;;28.02;13.43;;;;;;;;;;4963617;28;20527;-75
2021/04/14 19:11:10;;;;;;;27.23;12.60;;;;;;;;;;4964696;28;20022;-74
2021/04/14 19:13:42;;;;;;;23.60;12.20;;;;;;;;;;4972671;28;20113;-74
2021/04/14 19:16:14;;;;;;;20.90;10.05;;;;;;;;;;4972424;28;20034;-71
2021/04/14 19:18:43;;;;;;;24.52;11.70;;;;;;;;;;4972556;28;20027;-74
2021/04/14 19:21:13;;;;;;;25.05;12.25;;;;;;;;;;4971970;28;20053;-74
2021/04/14 19:23:44;;;;;;;26.63;11.80;;;;;;;;;;4972356;28;20113;-74
2021/04/14 19:26:11;;;;;;;26.50;12.27;;;;;;;;;;4972496;28;20484;-73
2021/04/14 19:28:40;;;;;;;32.95;14.25;;;;;;;;;;4972455;28;20133;-73
2021/04/14 19:31:12;;;;;;;24.70;11.50;;;;;;;;;;4972584;28;20093;-74
2021/04/14 19:33:38;;;;;;;23.60;12.05;;;;;;;;;;4972235;28;20027;-73
2021/04/14 19:36:10;;;;;;;24.02;11.75;;;;;;;;;;4972329;28;20125;-75
2021/04/14 19:38:42;;;;;;;19.40;10.60;;;;;;;;;;4972159;28;20376;-74